Enchant, Canada
Current Conditions -  °F | °C
As of 11:00 AM on Monday 24 Nov 2014 (Local Time) from CYQL Reporting Station
Few Clouds Few Clouds  
Wind Chill: 32°   Ceiling: Unl
Heat Index: 37°   Visibility: 40mi
Dew Point: 18°   Wind: 7mph
Humidity: 45%   Direction: 260°W
Pressure: 30.06"   Gusts: NA
Location:  50.17°N, 112.42°W
Report Text: CYQL 241800Z 26006KT 40SM FEW120 FEW250 03/M08 A3006 RMK AC1CI1 AC TR SLP212
Loading
Personal Weather Stations






























Interactive Weather Map New forecast layout! Learn more

10-Day Weather Forecast

Advertisements
Track Severe Weather on mobile